sensor_id;sensor_type;location;lat;lon;timestamp;temperature;humidity
11491;DHT22;5802;52.832;4.758;2023-07-22T00:00:32;23.80;50.00
11491;DHT22;5802;52.832;4.758;2023-07-22T00:02:58;23.80;50.10
11491;DHT22;5802;52.832;4.758;2023-07-22T00:05:25;23.80;50.10
11491;DHT22;5802;52.832;4.758;2023-07-22T00:07:52;23.80;50.10
11491;DHT22;5802;52.832;4.758;2023-07-22T00:10:20;23.80;50.10
11491;DHT22;5802;52.832;4.758;2023-07-22T00:12:47;23.70;50.10
11491;DHT22;5802;52.832;4.758;2023-07-22T00:15:15;23.70;50.10
11491;DHT22;5802;52.832;4.758;2023-07-22T00:17:42;23.70;50.10
11491;DHT22;5802;52.832;4.758;2023-07-22T00:20:09;23.70;50.10
11491;DHT22;5802;52.832;4.758;2023-07-22T00:22:37;23.70;50.10
11491;DHT22;5802;52.832;4.758;2023-07-22T00:25:08;23.70;50.80
11491;DHT22;5802;52.832;4.758;2023-07-22T00:27:38;23.70;50.20
11491;DHT22;5802;52.832;4.758;2023-07-22T00:30:07;23.70;50.20
11491;DHT22;5802;52.832;4.758;2023-07-22T00:32:34;23.70;50.20
11491;DHT22;5802;52.832;4.758;2023-07-22T00:35:02;23.70;50.20
11491;DHT22;5802;52.832;4.758;2023-07-22T00:37:30;23.70;50.20
11491;DHT22;5802;52.832;4.758;2023-07-22T00:39:57;23.70;50.20
11491;DHT22;5802;52.832;4.758;2023-07-22T00:42:24;23.70;50.30
11491;DHT22;5802;52.832;4.758;2023-07-22T00:44:52;23.70;50.30
11491;DHT22;5802;52.832;4.758;2023-07-22T00:47:20;23.70;50.30
11491;DHT22;5802;52.832;4.758;2023-07-22T00:49:47;23.70;50.30
11491;DHT22;5802;52.832;4.758;2023-07-22T00:52:16;23.70;50.30
11491;DHT22;5802;52.832;4.758;2023-07-22T00:54:43;23.70;50.30
11491;DHT22;5802;52.832;4.758;2023-07-22T00:57:11;23.60;50.30
11491;DHT22;5802;52.832;4.758;2023-07-22T00:59:38;23.60;50.40
11491;DHT22;5802;52.832;4.758;2023-07-22T01:02:07;23.60;50.40
11491;DHT22;5802;52.832;4.758;2023-07-22T01:04:35;23.60;50.40
11491;DHT22;5802;52.832;4.758;2023-07-22T01:07:04;23.60;50.40
11491;DHT22;5802;52.832;4.758;2023-07-22T01:09:34;23.60;50.40
11491;DHT22;5802;52.832;4.758;2023-07-22T01:12:02;23.60;50.40
11491;DHT22;5802;52.832;4.758;2023-07-22T01:14:28;23.60;50.40
11491;DHT22;5802;52.832;4.758;2023-07-22T01:16:55;23.60;50.40
11491;DHT22;5802;52.832;4.758;2023-07-22T01:19:23;23.60;50.40
11491;DHT22;5802;52.832;4.758;2023-07-22T01:21:50;23.60;50.50
11491;DHT22;5802;52.832;4.758;2023-07-22T01:24:19;23.60;50.50
11491;DHT22;5802;52.832;4.758;2023-07-22T01:26:46;23.60;50.50
11491;DHT22;5802;52.832;4.758;2023-07-22T01:29:13;23.60;50.60
11491;DHT22;5802;52.832;4.758;2023-07-22T01:31:40;23.60;50.50
11491;DHT22;5802;52.832;4.758;2023-07-22T01:34:07;23.60;50.50
11491;DHT22;5802;52.832;4.758;2023-07-22T01:36:34;23.60;50.60
11491;DHT22;5802;52.832;4.758;2023-07-22T01:39:00;23.60;50.60
11491;DHT22;5802;52.832;4.758;2023-07-22T01:41:29;23.60;50.60
11491;DHT22;5802;52.832;4.758;2023-07-22T01:43:55;23.60;50.60
11491;DHT22;5802;52.832;4.758;2023-07-22T01:46:22;23.50;50.50
11491;DHT22;5802;52.832;4.758;2023-07-22T01:48:49;23.60;50.60
11491;DHT22;5802;52.832;4.758;2023-07-22T01:51:22;23.50;50.60
11491;DHT22;5802;52.832;4.758;2023-07-22T01:53:49;23.50;50.60
11491;DHT22;5802;52.832;4.758;2023-07-22T01:56:16;23.50;50.60
11491;DHT22;5802;52.832;4.758;2023-07-22T01:58:44;23.50;50.60
11491;DHT22;5802;52.832;4.758;2023-07-22T02:01:18;23.50;50.70
11491;DHT22;5802;52.832;4.758;2023-07-22T02:03:44;23.50;50.60
11491;DHT22;5802;52.832;4.758;2023-07-22T02:06:12;23.50;50.60
11491;DHT22;5802;52.832;4.758;2023-07-22T02:08:39;23.50;50.70
11491;DHT22;5802;52.832;4.758;2023-07-22T02:11:12;23.50;50.60
11491;DHT22;5802;52.832;4.758;2023-07-22T02:13:39;23.50;50.70
11491;DHT22;5802;52.832;4.758;2023-07-22T02:16:07;23.50;50.70
11491;DHT22;5802;52.832;4.758;2023-07-22T02:18:37;23.40;50.70
11491;DHT22;5802;52.832;4.758;2023-07-22T02:21:03;23.40;50.70
11491;DHT22;5802;52.832;4.758;2023-07-22T02:23:34;23.40;50.70
11491;DHT22;5802;52.832;4.758;2023-07-22T02:26:04;23.40;50.70
11491;DHT22;5802;52.832;4.758;2023-07-22T02:28:31;23.40;50.70
11491;DHT22;5802;52.832;4.758;2023-07-22T02:31:01;23.40;50.70
11491;DHT22;5802;52.832;4.758;2023-07-22T02:33:33;23.40;50.70
11491;DHT22;5802;52.832;4.758;2023-07-22T02:36:00;23.40;50.80
11491;DHT22;5802;52.832;4.758;2023-07-22T02:38:27;23.40;50.80
11491;DHT22;5802;52.832;4.758;2023-07-22T02:40:53;23.40;50.80
11491;DHT22;5802;52.832;4.758;2023-07-22T02:43:20;23.40;50.80
11491;DHT22;5802;52.832;4.758;2023-07-22T02:45:46;23.40;50.80
11491;DHT22;5802;52.832;4.758;2023-07-22T02:48:14;23.40;50.80
11491;DHT22;5802;52.832;4.758;2023-07-22T02:50:43;23.40;50.80
11491;DHT22;5802;52.832;4.758;2023-07-22T02:53:09;23.40;50.90
11491;DHT22;5802;52.832;4.758;2023-07-22T02:55:36;23.40;50.80
11491;DHT22;5802;52.832;4.758;2023-07-22T02:58:03;23.40;50.80
11491;DHT22;5802;52.832;4.758;2023-07-22T03:00:30;23.40;50.90
11491;DHT22;5802;52.832;4.758;2023-07-22T03:02:57;23.40;51.50
11491;DHT22;5802;52.832;4.758;2023-07-22T03:05:26;23.40;50.90
11491;DHT22;5802;52.832;4.758;2023-07-22T03:07:55;23.40;50.90
11491;DHT22;5802;52.832;4.758;2023-07-22T03:10:22;23.40;50.90
11491;DHT22;5802;52.832;4.758;2023-07-22T03:12:48;23.40;50.90
11491;DHT22;5802;52.832;4.758;2023-07-22T03:15:15;23.40;50.90
11491;DHT22;5802;52.832;4.758;2023-07-22T03:17:44;23.30;50.90
11491;DHT22;5802;52.832;4.758;2023-07-22T03:20:11;23.30;50.90
11491;DHT22;5802;52.832;4.758;2023-07-22T03:22:39;23.30;50.90
11491;DHT22;5802;52.832;4.758;2023-07-22T03:25:08;23.30;50.90
11491;DHT22;5802;52.832;4.758;2023-07-22T03:27:36;23.30;50.90
11491;DHT22;5802;52.832;4.758;2023-07-22T03:30:03;23.30;50.90
11491;DHT22;5802;52.832;4.758;2023-07-22T03:32:32;23.30;50.90
11491;DHT22;5802;52.832;4.758;2023-07-22T03:34:58;23.30;51.00
11491;DHT22;5802;52.832;4.758;2023-07-22T03:37:25;23.30;50.90
11491;DHT22;5802;52.832;4.758;2023-07-22T03:39:52;23.30;50.90
11491;DHT22;5802;52.832;4.758;2023-07-22T03:42:20;23.30;51.00
11491;DHT22;5802;52.832;4.758;2023-07-22T03:44:46;23.30;51.00
11491;DHT22;5802;52.832;4.758;2023-07-22T03:47:13;23.30;51.00
11491;DHT22;5802;52.832;4.758;2023-07-22T03:49:40;23.30;51.00
11491;DHT22;5802;52.832;4.758;2023-07-22T03:52:07;23.30;51.00
11491;DHT22;5802;52.832;4.758;2023-07-22T03:54:34;23.30;51.00
11491;DHT22;5802;52.832;4.758;2023-07-22T03:57:00;23.30;51.00
11491;DHT22;5802;52.832;4.758;2023-07-22T03:59:29;23.30;51.00
11491;DHT22;5802;52.832;4.758;2023-07-22T04:01:55;23.30;51.10
11491;DHT22;5802;52.832;4.758;2023-07-22T04:04:22;23.30;51.10
11491;DHT22;5802;52.832;4.758;2023-07-22T04:06:49;23.30;51.00
11491;DHT22;5802;52.832;4.758;2023-07-22T04:09:15;23.30;51.10
11491;DHT22;5802;52.832;4.758;2023-07-22T04:11:42;23.30;51.10
11491;DHT22;5802;52.832;4.758;2023-07-22T04:14:09;23.30;51.10
11491;DHT22;5802;52.832;4.758;2023-07-22T04:16:39;23.20;51.10
11491;DHT22;5802;52.832;4.758;2023-07-22T04:19:05;23.20;51.10
11491;DHT22;5802;52.832;4.758;2023-07-22T04:21:32;23.20;51.10
11491;DHT22;5802;52.832;4.758;2023-07-22T04:24:01;23.20;51.10
11491;DHT22;5802;52.832;4.758;2023-07-22T04:26:28;23.20;51.10
11491;DHT22;5802;52.832;4.758;2023-07-22T04:28:56;23.20;51.10
11491;DHT22;5802;52.832;4.758;2023-07-22T04:31:23;23.20;51.10
11491;DHT22;5802;52.832;4.758;2023-07-22T04:33:51;23.20;51.10
11491;DHT22;5802;52.832;4.758;2023-07-22T04:36:18;23.20;51.10
11491;DHT22;5802;52.832;4.758;2023-07-22T04:38:44;23.20;51.20
11491;DHT22;5802;52.832;4.758;2023-07-22T04:41:11;23.20;51.10
11491;DHT22;5802;52.832;4.758;2023-07-22T04:43:38;23.20;51.10
11491;DHT22;5802;52.832;4.758;2023-07-22T04:46:05;23.20;51.10
11491;DHT22;5802;52.832;4.758;2023-07-22T04:48:32;23.20;51.10
11491;DHT22;5802;52.832;4.758;2023-07-22T04:51:00;23.20;51.20
11491;DHT22;5802;52.832;4.758;2023-07-22T04:53:27;23.20;51.20
11491;DHT22;5802;52.832;4.758;2023-07-22T04:55:54;23.20;51.20
11491;DHT22;5802;52.832;4.758;2023-07-22T04:58:21;23.20;51.30
11491;DHT22;5802;52.832;4.758;2023-07-22T05:00:49;23.20;51.20
11491;DHT22;5802;52.832;4.758;2023-07-22T05:03:17;23.20;51.20
11491;DHT22;5802;52.832;4.758;2023-07-22T05:05:44;23.20;51.20
11491;DHT22;5802;52.832;4.758;2023-07-22T05:08:13;23.20;51.20
11491;DHT22;5802;52.832;4.758;2023-07-22T05:10:40;23.20;51.20
11491;DHT22;5802;52.832;4.758;2023-07-22T05:13:06;23.20;51.20
11491;DHT22;5802;52.832;4.758;2023-07-22T05:15:33;23.20;51.20
11491;DHT22;5802;52.832;4.758;2023-07-22T05:18:01;23.20;51.20
11491;DHT22;5802;52.832;4.758;2023-07-22T05:20:28;23.20;51.20
11491;DHT22;5802;52.832;4.758;2023-07-22T05:22:55;23.20;51.20
11491;DHT22;5802;52.832;4.758;2023-07-22T05:25:23;23.20;51.20
11491;DHT22;5802;52.832;4.758;2023-07-22T05:27:50;23.20;51.20
11491;DHT22;5802;52.832;4.758;2023-07-22T05:30:17;23.20;51.20
11491;DHT22;5802;52.832;4.758;2023-07-22T05:32:43;23.20;51.20
11491;DHT22;5802;52.832;4.758;2023-07-22T05:35:10;23.20;51.20
11491;DHT22;5802;52.832;4.758;2023-07-22T05:37:37;23.20;51.20
11491;DHT22;5802;52.832;4.758;2023-07-22T05:40:05;23.20;51.20
11491;DHT22;5802;52.832;4.758;2023-07-22T05:42:34;23.20;51.20
11491;DHT22;5802;52.832;4.758;2023-07-22T05:45:02;23.30;51.30
11491;DHT22;5802;52.832;4.758;2023-07-22T05:47:29;23.30;51.90
11491;DHT22;5802;52.832;4.758;2023-07-22T05:49:55;23.30;51.30
11491;DHT22;5802;52.832;4.758;2023-07-22T05:52:22;23.30;51.30
11491;DHT22;5802;52.832;4.758;2023-07-22T05:54:49;23.30;51.30
11491;DHT22;5802;52.832;4.758;2023-07-22T05:57:16;23.30;51.30
11491;DHT22;5802;52.832;4.758;2023-07-22T05:59:44;23.30;51.30
11491;DHT22;5802;52.832;4.758;2023-07-22T06:02:12;23.30;51.20
11491;DHT22;5802;52.832;4.758;2023-07-22T06:04:39;23.30;51.20
11491;DHT22;5802;52.832;4.758;2023-07-22T06:07:06;23.30;51.20
11491;DHT22;5802;52.832;4.758;2023-07-22T06:09:33;23.30;51.30
11491;DHT22;5802;52.832;4.758;2023-07-22T06:12:00;23.30;51.20
11491;DHT22;5802;52.832;4.758;2023-07-22T06:14:27;23.30;51.20
11491;DHT22;5802;52.832;4.758;2023-07-22T06:16:55;23.30;51.20
11491;DHT22;5802;52.832;4.758;2023-07-22T06:19:22;23.30;51.20
11491;DHT22;5802;52.832;4.758;2023-07-22T06:21:49;23.30;51.20
11491;DHT22;5802;52.832;4.758;2023-07-22T06:24:16;23.30;51.20
11491;DHT22;5802;52.832;4.758;2023-07-22T06:26:43;23.30;51.20
11491;DHT22;5802;52.832;4.758;2023-07-22T06:29:10;23.30;51.20
11491;DHT22;5802;52.832;4.758;2023-07-22T06:31:36;23.30;51.20
11491;DHT22;5802;52.832;4.758;2023-07-22T06:34:04;23.30;51.20
11491;DHT22;5802;52.832;4.758;2023-07-22T06:36:33;23.30;51.20
11491;DHT22;5802;52.832;4.758;2023-07-22T06:39:00;23.30;51.80
11491;DHT22;5802;52.832;4.758;2023-07-22T06:41:26;23.30;51.20
11491;DHT22;5802;52.832;4.758;2023-07-22T06:43:53;23.30;51.20
11491;DHT22;5802;52.832;4.758;2023-07-22T06:46:20;23.30;51.20
11491;DHT22;5802;52.832;4.758;2023-07-22T06:48:47;23.30;51.20
11491;DHT22;5802;52.832;4.758;2023-07-22T06:51:15;23.30;51.20
11491;DHT22;5802;52.832;4.758;2023-07-22T06:53:42;23.30;51.10
11491;DHT22;5802;52.832;4.758;2023-07-22T06:56:08;23.30;51.10
11491;DHT22;5802;52.832;4.758;2023-07-22T06:58:35;23.30;51.10
11491;DHT22;5802;52.832;4.758;2023-07-22T07:01:02;23.40;51.20
11491;DHT22;5802;52.832;4.758;2023-07-22T07:03:28;23.40;51.20
11491;DHT22;5802;52.832;4.758;2023-07-22T07:05:56;23.40;51.20
11491;DHT22;5802;52.832;4.758;2023-07-22T07:08:24;23.40;51.20
11491;DHT22;5802;52.832;4.758;2023-07-22T07:10:51;23.40;51.20
11491;DHT22;5802;52.832;4.758;2023-07-22T07:13:18;23.40;51.80
11491;DHT22;5802;52.832;4.758;2023-07-22T07:15:47;23.40;51.10
11491;DHT22;5802;52.832;4.758;2023-07-22T07:18:15;23.40;51.10
11491;DHT22;5802;52.832;4.758;2023-07-22T07:20:42;23.40;51.10
11491;DHT22;5802;52.832;4.758;2023-07-22T07:23:09;23.40;51.10
11491;DHT22;5802;52.832;4.758;2023-07-22T07:25:37;23.40;51.10
11491;DHT22;5802;52.832;4.758;2023-07-22T07:28:04;23.40;51.10
11491;DHT22;5802;52.832;4.758;2023-07-22T07:30:31;23.40;51.10
11491;DHT22;5802;52.832;4.758;2023-07-22T07:32:58;23.40;51.10
11491;DHT22;5802;52.832;4.758;2023-07-22T07:35:25;23.40;51.00
11491;DHT22;5802;52.832;4.758;2023-07-22T07:37:52;23.40;51.00
11491;DHT22;5802;52.832;4.758;2023-07-22T07:40:19;23.40;51.00
11491;DHT22;5802;52.832;4.758;2023-07-22T07:42:47;23.40;51.00
11491;DHT22;5802;52.832;4.758;2023-07-22T07:45:14;23.40;51.00
11491;DHT22;5802;52.832;4.758;2023-07-22T07:47:41;23.50;51.00
11491;DHT22;5802;52.832;4.758;2023-07-22T07:50:08;23.50;51.00
11491;DHT22;5802;52.832;4.758;2023-07-22T07:52:35;23.50;51.00
11491;DHT22;5802;52.832;4.758;2023-07-22T07:55:04;23.50;50.90
11491;DHT22;5802;52.832;4.758;2023-07-22T07:57:31;23.50;50.90
11491;DHT22;5802;52.832;4.758;2023-07-22T07:59:59;23.60;50.90
11491;DHT22;5802;52.832;4.758;2023-07-22T08:02:26;23.60;50.90
11491;DHT22;5802;52.832;4.758;2023-07-22T08:05:00;23.60;50.90
11491;DHT22;5802;52.832;4.758;2023-07-22T08:07:27;23.60;50.80
11491;DHT22;5802;52.832;4.758;2023-07-22T08:09:54;23.60;50.80
11491;DHT22;5802;52.832;4.758;2023-07-22T08:12:22;23.60;50.80
11491;DHT22;5802;52.832;4.758;2023-07-22T08:14:50;23.60;50.70
11491;DHT22;5802;52.832;4.758;2023-07-22T08:17:19;23.60;50.70
11491;DHT22;5802;52.832;4.758;2023-07-22T08:19:46;23.60;50.80
11491;DHT22;5802;52.832;4.758;2023-07-22T08:22:13;23.70;50.70
11491;DHT22;5802;52.832;4.758;2023-07-22T08:24:39;23.70;50.70
11491;DHT22;5802;52.832;4.758;2023-07-22T08:27:06;23.70;50.70
11491;DHT22;5802;52.832;4.758;2023-07-22T08:29:33;23.70;50.70
11491;DHT22;5802;52.832;4.758;2023-07-22T08:32:00;23.70;50.70
11491;DHT22;5802;52.832;4.758;2023-07-22T08:34:29;23.70;50.60
11491;DHT22;5802;52.832;4.758;2023-07-22T08:36:55;23.70;50.60
11491;DHT22;5802;52.832;4.758;2023-07-22T08:39:22;23.70;50.60
11491;DHT22;5802;52.832;4.758;2023-07-22T08:41:50;23.70;50.60
11491;DHT22;5802;52.832;4.758;2023-07-22T08:44:19;23.70;50.60
11491;DHT22;5802;52.832;4.758;2023-07-22T08:46:46;23.70;50.60
11491;DHT22;5802;52.832;4.758;2023-07-22T08:49:15;23.70;50.60
11491;DHT22;5802;52.832;4.758;2023-07-22T08:51:44;23.70;50.60
11491;DHT22;5802;52.832;4.758;2023-07-22T08:54:12;23.70;50.60
11491;DHT22;5802;52.832;4.758;2023-07-22T08:56:39;23.70;50.60
11491;DHT22;5802;52.832;4.758;2023-07-22T08:59:06;23.70;50.60
11491;DHT22;5802;52.832;4.758;2023-07-22T09:01:34;23.70;50.60
11491;DHT22;5802;52.832;4.758;2023-07-22T09:04:01;23.70;50.60
11491;DHT22;5802;52.832;4.758;2023-07-22T09:06:28;23.60;50.60
11491;DHT22;5802;52.832;4.758;2023-07-22T09:08:56;23.70;50.60
11491;DHT22;5802;52.832;4.758;2023-07-22T09:11:25;23.60;50.60
11491;DHT22;5802;52.832;4.758;2023-07-22T09:13:52;23.60;50.60
11491;DHT22;5802;52.832;4.758;2023-07-22T09:16:20;23.70;50.60
11491;DHT22;5802;52.832;4.758;2023-07-22T09:18:47;23.60;50.60
11491;DHT22;5802;52.832;4.758;2023-07-22T09:21:14;23.60;50.60
11491;DHT22;5802;52.832;4.758;2023-07-22T09:23:40;23.60;50.60
11491;DHT22;5802;52.832;4.758;2023-07-22T09:26:14;23.70;50.70
11491;DHT22;5802;52.832;4.758;2023-07-22T09:28:54;23.70;50.70
11491;DHT22;5802;52.832;4.758;2023-07-22T09:31:21;23.70;50.70
11491;DHT22;5802;52.832;4.758;2023-07-22T09:33:49;23.70;50.70
11491;DHT22;5802;52.832;4.758;2023-07-22T09:36:16;23.70;50.90
11491;DHT22;5802;52.832;4.758;2023-07-22T09:38:43;23.70;51.00
11491;DHT22;5802;52.832;4.758;2023-07-22T09:41:09;23.70;51.10
11491;DHT22;5802;52.832;4.758;2023-07-22T09:43:38;23.60;51.30
11491;DHT22;5802;52.832;4.758;2023-07-22T09:46:09;23.70;51.30
11491;DHT22;5802;52.832;4.758;2023-07-22T09:48:44;23.70;51.40
11491;DHT22;5802;52.832;4.758;2023-07-22T09:51:12;23.70;51.50
11491;DHT22;5802;52.832;4.758;2023-07-22T09:53:44;23.70;51.60
11491;DHT22;5802;52.832;4.758;2023-07-22T09:56:11;23.70;51.70
11491;DHT22;5802;52.832;4.758;2023-07-22T09:58:40;23.70;51.80
11491;DHT22;5802;52.832;4.758;2023-07-22T10:01:07;23.70;51.90
11491;DHT22;5802;52.832;4.758;2023-07-22T10:03:36;23.70;52.00
11491;DHT22;5802;52.832;4.758;2023-07-22T10:06:05;23.70;51.90
11491;DHT22;5802;52.832;4.758;2023-07-22T10:08:34;23.80;52.00
11491;DHT22;5802;52.832;4.758;2023-07-22T10:11:03;23.80;51.90
11491;DHT22;5802;52.832;4.758;2023-07-22T10:13:32;23.80;51.90
11491;DHT22;5802;52.832;4.758;2023-07-22T10:16:00;23.80;51.80
11491;DHT22;5802;52.832;4.758;2023-07-22T10:18:28;23.80;51.80
11491;DHT22;5802;52.832;4.758;2023-07-22T10:20:57;23.80;51.70
11491;DHT22;5802;52.832;4.758;2023-07-22T10:23:25;23.80;51.60
11491;DHT22;5802;52.832;4.758;2023-07-22T10:25:53;23.90;52.20
11491;DHT22;5802;52.832;4.758;2023-07-22T10:28:21;23.90;51.50
11491;DHT22;5802;52.832;4.758;2023-07-22T10:30:48;23.90;51.40
11491;DHT22;5802;52.832;4.758;2023-07-22T10:33:16;23.90;51.40
11491;DHT22;5802;52.832;4.758;2023-07-22T10:36:02;23.90;51.40
11491;DHT22;5802;52.832;4.758;2023-07-22T10:38:30;23.90;51.40
11491;DHT22;5802;52.832;4.758;2023-07-22T10:40:57;23.90;51.30
11491;DHT22;5802;52.832;4.758;2023-07-22T10:43:26;23.90;51.40
11491;DHT22;5802;52.832;4.758;2023-07-22T10:45:54;23.80;51.30
11491;DHT22;5802;52.832;4.758;2023-07-22T10:48:26;23.80;51.30
11491;DHT22;5802;52.832;4.758;2023-07-22T10:50:54;23.80;51.20
11491;DHT22;5802;52.832;4.758;2023-07-22T10:53:28;23.80;51.20
11491;DHT22;5802;52.832;4.758;2023-07-22T10:56:05;23.80;51.30
11491;DHT22;5802;52.832;4.758;2023-07-22T10:58:33;23.80;51.20
11491;DHT22;5802;52.832;4.758;2023-07-22T11:01:22;23.80;51.20
11491;DHT22;5802;52.832;4.758;2023-07-22T11:04:05;23.80;51.30
11491;DHT22;5802;52.832;4.758;2023-07-22T11:06:32;23.80;51.30
11491;DHT22;5802;52.832;4.758;2023-07-22T11:08:59;23.80;51.30
11491;DHT22;5802;52.832;4.758;2023-07-22T11:11:35;23.80;51.30
11491;DHT22;5802;52.832;4.758;2023-07-22T11:14:15;23.80;51.40
11491;DHT22;5802;52.832;4.758;2023-07-22T11:16:43;23.80;51.50
11491;DHT22;5802;52.832;4.758;2023-07-22T11:19:12;23.80;51.40
11491;DHT22;5802;52.832;4.758;2023-07-22T11:21:39;23.80;51.40
11491;DHT22;5802;52.832;4.758;2023-07-22T11:24:07;23.80;51.40
11491;DHT22;5802;52.832;4.758;2023-07-22T11:26:34;23.80;51.30
11491;DHT22;5802;52.832;4.758;2023-07-22T11:29:01;23.80;51.30
11491;DHT22;5802;52.832;4.758;2023-07-22T11:31:32;23.80;51.30
11491;DHT22;5802;52.832;4.758;2023-07-22T11:33:59;23.80;51.30
11491;DHT22;5802;52.832;4.758;2023-07-22T11:36:27;23.90;51.30
11491;DHT22;5802;52.832;4.758;2023-07-22T11:39:00;23.80;51.30
11491;DHT22;5802;52.832;4.758;2023-07-22T11:41:27;23.80;51.20
11491;DHT22;5802;52.832;4.758;2023-07-22T11:43:55;23.80;51.30
11491;DHT22;5802;52.832;4.758;2023-07-22T11:46:22;23.80;51.20
11491;DHT22;5802;52.832;4.758;2023-07-22T11:48:49;23.80;51.20
11491;DHT22;5802;52.832;4.758;2023-07-22T11:51:18;23.80;51.20
11491;DHT22;5802;52.832;4.758;2023-07-22T11:53:47;23.90;51.20
11491;DHT22;5802;52.832;4.758;2023-07-22T11:56:18;23.80;51.20
11491;DHT22;5802;52.832;4.758;2023-07-22T11:58:49;23.90;51.20
11491;DHT22;5802;52.832;4.758;2023-07-22T12:01:16;23.90;51.20
11491;DHT22;5802;52.832;4.758;2023-07-22T12:03:43;23.90;51.20
11491;DHT22;5802;52.832;4.758;2023-07-22T12:06:10;23.90;51.20
11491;DHT22;5802;52.832;4.758;2023-07-22T12:08:43;24.00;51.20
11491;DHT22;5802;52.832;4.758;2023-07-22T12:11:17;24.00;51.20
11491;DHT22;5802;52.832;4.758;2023-07-22T12:13:45;24.00;51.10
11491;DHT22;5802;52.832;4.758;2023-07-22T12:16:12;24.00;51.10
11491;DHT22;5802;52.832;4.758;2023-07-22T12:18:43;24.00;51.10
11491;DHT22;5802;52.832;4.758;2023-07-22T12:21:10;24.10;51.10
11491;DHT22;5802;52.832;4.758;2023-07-22T12:23:37;24.10;51.00
11491;DHT22;5802;52.832;4.758;2023-07-22T12:26:04;24.10;50.90
11491;DHT22;5802;52.832;4.758;2023-07-22T12:28:32;24.10;50.90
11491;DHT22;5802;52.832;4.758;2023-07-22T12:30:59;24.20;50.90
11491;DHT22;5802;52.832;4.758;2023-07-22T12:33:26;24.20;50.80
11491;DHT22;5802;52.832;4.758;2023-07-22T12:35:54;24.20;50.80
11491;DHT22;5802;52.832;4.758;2023-07-22T12:38:20;24.20;50.70
11491;DHT22;5802;52.832;4.758;2023-07-22T12:40:47;24.20;50.70
11491;DHT22;5802;52.832;4.758;2023-07-22T12:43:14;24.20;50.60
11491;DHT22;5802;52.832;4.758;2023-07-22T12:45:42;24.20;50.60
11491;DHT22;5802;52.832;4.758;2023-07-22T12:48:09;24.20;50.60
11491;DHT22;5802;52.832;4.758;2023-07-22T12:50:36;24.30;50.70
11491;DHT22;5802;52.832;4.758;2023-07-22T12:53:02;24.20;50.50
11491;DHT22;5802;52.832;4.758;2023-07-22T12:55:29;24.20;50.50
11491;DHT22;5802;52.832;4.758;2023-07-22T12:57:56;24.30;50.60
11491;DHT22;5802;52.832;4.758;2023-07-22T13:00:22;24.30;50.50
11491;DHT22;5802;52.832;4.758;2023-07-22T13:02:50;24.30;50.60
11491;DHT22;5802;52.832;4.758;2023-07-22T13:05:18;24.20;50.50
11491;DHT22;5802;52.832;4.758;2023-07-22T13:07:44;24.30;50.60
11491;DHT22;5802;52.832;4.758;2023-07-22T13:10:11;24.30;50.50
11491;DHT22;5802;52.832;4.758;2023-07-22T13:12:42;24.20;50.50
11491;DHT22;5802;52.832;4.758;2023-07-22T13:15:09;24.20;50.50
11491;DHT22;5802;52.832;4.758;2023-07-22T13:17:36;24.20;50.50
11491;DHT22;5802;52.832;4.758;2023-07-22T13:20:05;24.20;50.50
11491;DHT22;5802;52.832;4.758;2023-07-22T13:22:34;24.20;50.50
11491;DHT22;5802;52.832;4.758;2023-07-22T13:25:01;24.20;50.50
11491;DHT22;5802;52.832;4.758;2023-07-22T13:27:28;24.20;50.50
11491;DHT22;5802;52.832;4.758;2023-07-22T13:29:55;24.20;50.50
11491;DHT22;5802;52.832;4.758;2023-07-22T13:32:21;24.30;50.70
11491;DHT22;5802;52.832;4.758;2023-07-22T13:34:48;24.20;50.50
11491;DHT22;5802;52.832;4.758;2023-07-22T13:37:16;24.20;50.50
11491;DHT22;5802;52.832;4.758;2023-07-22T13:39:43;24.20;50.50
11491;DHT22;5802;52.832;4.758;2023-07-22T13:42:09;24.20;50.50
11491;DHT22;5802;52.832;4.758;2023-07-22T13:44:36;24.20;50.50
11491;DHT22;5802;52.832;4.758;2023-07-22T13:47:03;24.20;50.50
11491;DHT22;5802;52.832;4.758;2023-07-22T13:49:30;24.20;50.50
11491;DHT22;5802;52.832;4.758;2023-07-22T13:51:57;24.20;50.50
11491;DHT22;5802;52.832;4.758;2023-07-22T13:54:25;24.20;50.50
11491;DHT22;5802;52.832;4.758;2023-07-22T13:56:51;24.20;50.50
11491;DHT22;5802;52.832;4.758;2023-07-22T13:59:18;24.20;50.50
11491;DHT22;5802;52.832;4.758;2023-07-22T14:01:45;24.20;50.50
11491;DHT22;5802;52.832;4.758;2023-07-22T14:04:11;24.20;50.50
11491;DHT22;5802;52.832;4.758;2023-07-22T14:06:38;24.20;50.40
11491;DHT22;5802;52.832;4.758;2023-07-22T14:09:05;24.20;50.40
11491;DHT22;5802;52.832;4.758;2023-07-22T14:11:33;24.30;50.50
11491;DHT22;5802;52.832;4.758;2023-07-22T14:13:59;24.20;50.40
11491;DHT22;5802;52.832;4.758;2023-07-22T14:16:26;24.30;50.50
11491;DHT22;5802;52.832;4.758;2023-07-22T14:18:53;24.30;50.40
11491;DHT22;5802;52.832;4.758;2023-07-22T14:21:20;24.30;50.50
11491;DHT22;5802;52.832;4.758;2023-07-22T14:23:47;24.30;50.40
11491;DHT22;5802;52.832;4.758;2023-07-22T14:26:13;24.20;50.40
11491;DHT22;5802;52.832;4.758;2023-07-22T14:28:42;24.30;50.40
11491;DHT22;5802;52.832;4.758;2023-07-22T14:31:08;24.20;50.40
11491;DHT22;5802;52.832;4.758;2023-07-22T14:33:35;24.30;50.40
11491;DHT22;5802;52.832;4.758;2023-07-22T14:36:02;24.30;50.40
11491;DHT22;5802;52.832;4.758;2023-07-22T14:38:29;24.30;50.40
11491;DHT22;5802;52.832;4.758;2023-07-22T14:40:55;24.30;50.40
11491;DHT22;5802;52.832;4.758;2023-07-22T14:43:22;24.30;50.40
11491;DHT22;5802;52.832;4.758;2023-07-22T14:45:52;24.30;50.40
11491;DHT22;5802;52.832;4.758;2023-07-22T14:48:19;24.20;50.40
11491;DHT22;5802;52.832;4.758;2023-07-22T14:50:45;24.20;50.40
11491;DHT22;5802;52.832;4.758;2023-07-22T14:53:12;24.20;50.50
11491;DHT22;5802;52.832;4.758;2023-07-22T14:55:39;24.20;50.50
11491;DHT22;5802;52.832;4.758;2023-07-22T14:58:06;24.30;50.60
11491;DHT22;5802;52.832;4.758;2023-07-22T15:00:33;24.30;50.60
11491;DHT22;5802;52.832;4.758;2023-07-22T15:03:01;24.30;50.60
11491;DHT22;5802;52.832;4.758;2023-07-22T15:05:27;24.30;50.60
11491;DHT22;5802;52.832;4.758;2023-07-22T15:07:54;24.20;50.60
11491;DHT22;5802;52.832;4.758;2023-07-22T15:10:21;24.30;50.70
11491;DHT22;5802;52.832;4.758;2023-07-22T15:12:47;24.30;50.70
11491;DHT22;5802;52.832;4.758;2023-07-22T15:15:14;24.30;50.80
11491;DHT22;5802;52.832;4.758;2023-07-22T15:17:41;24.20;50.70
11491;DHT22;5802;52.832;4.758;2023-07-22T15:20:10;24.30;50.80
11491;DHT22;5802;52.832;4.758;2023-07-22T15:22:37;24.30;50.90
11491;DHT22;5802;52.832;4.758;2023-07-22T15:25:04;24.30;50.90
11491;DHT22;5802;52.832;4.758;2023-07-22T15:27:31;24.30;50.90
11491;DHT22;5802;52.832;4.758;2023-07-22T15:29:58;24.30;51.00
11491;DHT22;5802;52.832;4.758;2023-07-22T15:32:24;24.30;51.00
11491;DHT22;5802;52.832;4.758;2023-07-22T15:34:51;24.30;51.10
11491;DHT22;5802;52.832;4.758;2023-07-22T15:37:19;24.30;51.10
11491;DHT22;5802;52.832;4.758;2023-07-22T15:39:46;24.30;51.10
11491;DHT22;5802;52.832;4.758;2023-07-22T15:42:12;24.30;51.10
11491;DHT22;5802;52.832;4.758;2023-07-22T15:44:39;24.30;51.20
11491;DHT22;5802;52.832;4.758;2023-07-22T15:47:06;24.20;51.10